createdAt,value
2022-09-04T00:00:14.686Z,99941.59
2022-09-04T00:02:51.495Z,99938.53
2022-09-04T00:05:36.580Z,99946.63
2022-09-04T00:08:28.866Z,99943.25
2022-09-04T00:11:18.984Z,99945.97
2022-09-04T00:13:51.418Z,99950.22
2022-09-04T00:16:20.546Z,99950.78
2022-09-04T00:19:03.914Z,99954.41
2022-09-04T00:21:49.992Z,99949.50
2022-09-04T00:24:29.008Z,99950.16
2022-09-04T00:27:24.276Z,99956.37
2022-09-04T00:30:02.530Z,99955.16
2022-09-04T00:32:48.473Z,99961.63
2022-09-04T00:35:23.548Z,99956.37
2022-09-04T00:38:06.410Z,99958.41
2022-09-04T00:40:47.825Z,99962.63
2022-09-04T00:43:37.021Z,99949.97
2022-09-04T00:46:22.811Z,99962.50
2022-09-04T00:49:16.690Z,99961.75
2022-09-04T00:52:15.130Z,99956.53
2022-09-04T00:55:10.819Z,99959.44
2022-09-04T00:58:00.557Z,99963.13
2022-09-04T01:00:28.989Z,99955.53
2022-09-04T01:03:20.884Z,99956.69
2022-09-04T01:06:19.167Z,99958.47
2022-09-04T01:09:05.149Z,99956.06
2022-09-04T01:11:35.787Z,99955.56
2022-09-04T01:14:13.367Z,99966.00
2022-09-04T01:16:47.722Z,99965.69
2022-09-04T01:19:29.022Z,99968.69
2022-09-04T01:22:06.797Z,99976.28
2022-09-04T01:24:43.722Z,99976.19
2022-09-04T01:27:17.337Z,99974.06
2022-09-04T01:30:08.158Z,99989.56
2022-09-04T01:33:17.671Z,99991.16
2022-09-04T01:35:56.154Z,99989.00
2022-09-04T01:38:41.958Z,99982.25
2022-09-04T01:41:24.424Z,99981.44
2022-09-04T01:43:52.101Z,99991.97
2022-09-04T01:46:43.958Z,99993.06
2022-09-04T01:49:20.335Z,99999.22
2022-09-04T01:52:00.324Z,99993.47
2022-09-04T01:54:45.978Z,99993.16
2022-09-04T01:57:34.852Z,99995.59
2022-09-04T02:00:10.306Z,99993.78
2022-09-04T02:02:57.133Z,99997.34
2022-09-04T02:05:31.100Z,99987.19
2022-09-04T02:08:17.347Z,99997.31
2022-09-04T02:10:59.627Z,99994.47
2022-09-04T02:13:34.200Z,99992.16
2022-09-04T02:16:20.093Z,99996.25
2022-09-04T02:19:19.897Z,99992.53
2022-09-04T02:21:57.997Z,99997.62
2022-09-04T02:24:46.983Z,99989.66
2022-09-04T02:27:49.945Z,99996.91
2022-09-04T02:30:18.853Z,99995.31
2022-09-04T02:33:08.457Z,99998.28
2022-09-04T02:35:36.099Z,100003.31
2022-09-04T02:38:31.547Z,100008.03
2022-09-04T02:40:59.246Z,100008.78
2022-09-04T02:43:41.661Z,100006.19
2022-09-04T02:46:17.681Z,100001.66
2022-09-04T02:49:18.463Z,99997.50
2022-09-04T02:51:56.423Z,100000.16
2022-09-04T02:54:53.092Z,100005.25
2022-09-04T02:57:40.746Z,100003.00
2022-09-04T03:00:21.257Z,100005.25
2022-09-04T03:03:17.521Z,100007.13
2022-09-04T03:05:58.877Z,100002.00
2022-09-04T03:08:36.986Z,99997.72
2022-09-04T03:11:17.521Z,100000.81
2022-09-04T03:14:09.885Z,100001.81
2022-09-04T03:16:41.555Z,100004.41
2022-09-04T03:19:21.406Z,100000.59
2022-09-04T03:22:04.184Z,99999.56
2022-09-04T03:24:50.147Z,100002.13
2022-09-04T03:27:19.076Z,100010.19
2022-09-04T03:30:01.369Z,100010.97
2022-09-04T03:32:52.739Z,100010.72
2022-09-04T03:35:37.849Z,100013.06
2022-09-04T03:38:15.728Z,100016.75
2022-09-04T03:41:11.849Z,100014.34
2022-09-04T03:43:57.000Z,100030.16
2022-09-04T03:46:30.907Z,100029.66
2022-09-04T03:49:07.421Z,100029.66
2022-09-04T03:51:53.688Z,100028.91
2022-09-04T03:54:43.282Z,100033.44
2022-09-04T03:57:35.826Z,100026.78
2022-09-04T04:00:11.305Z,100030.97
2022-09-04T04:03:03.356Z,100031.41
2022-09-04T04:05:53.122Z,100028.19
2022-09-04T04:08:42.345Z,100039.28
2022-09-04T04:11:21.419Z,100040.53
2022-09-04T04:13:58.171Z,100043.25
2022-09-04T04:16:34.913Z,100052.41
2022-09-04T04:19:20.702Z,100060.44
2022-09-04T04:22:07.394Z,100057.53
2022-09-04T04:24:57.530Z,100066.59
2022-09-04T04:28:01.679Z,100069.59
2022-09-04T04:30:44.906Z,100081.25
2022-09-04T04:33:22.450Z,100089.44
2022-09-04T04:35:57.437Z,100087.28
2022-09-04T04:39:02.264Z,100095.47
2022-09-04T04:42:06.611Z,100088.81
2022-09-04T04:45:05.060Z,100095.78
2022-09-04T04:47:48.513Z,100101.63
2022-09-04T04:50:21.320Z,100100.38
2022-09-04T04:53:21.239Z,100097.00
2022-09-04T04:55:52.114Z,100106.22
2022-09-04T04:58:45.091Z,100110.75
2022-09-04T05:01:36.058Z,100111.22
2022-09-04T05:04:30.128Z,100119.97
2022-09-04T05:07:07.473Z,100117.91
2022-09-04T05:09:42.557Z,100110.78
2022-09-04T05:12:35.043Z,100107.06
2022-09-04T05:15:13.685Z,100112.34
2022-09-04T05:17:54.927Z,100119.13
2022-09-04T05:20:49.888Z,100110.38
2022-09-04T05:23:32.095Z,100115.59
2022-09-04T05:26:11.157Z,100118.50
2022-09-04T05:28:55.106Z,100118.69
2022-09-04T05:31:43.603Z,100121.75
2022-09-04T05:34:59.703Z,100130.22
2022-09-04T05:37:45.357Z,100126.41
2022-09-04T05:40:44.823Z,100133.00
2022-09-04T05:43:39.350Z,100134.03
2022-09-04T05:46:32.098Z,100150.34
2022-09-04T05:49:41.165Z,100143.78
2022-09-04T05:52:45.485Z,100146.97
2022-09-04T05:55:17.562Z,100151.97
2022-09-04T05:57:56.735Z,100140.66
2022-09-04T06:00:24.900Z,100149.16
2022-09-04T06:03:14.845Z,100146.78
2022-09-04T06:06:10.769Z,100148.31
2022-09-04T06:08:51.192Z,100147.94
2022-09-04T06:11:44.155Z,100152.09
2022-09-04T06:14:21.853Z,100145.94
2022-09-04T06:17:12.860Z,100151.75
2022-09-04T06:20:12.512Z,100144.19
2022-09-04T06:23:18.172Z,100147.41
2022-09-04T06:25:59.121Z,100151.16
2022-09-04T06:29:08.662Z,100155.91
2022-09-04T06:32:04.501Z,100159.81
2022-09-04T06:35:04.309Z,100161.53
2022-09-04T06:38:10.056Z,100165.63
2022-09-04T06:41:13.456Z,100167.00
2022-09-04T06:44:08.139Z,100167.06
2022-09-04T06:46:59.030Z,100170.88
2022-09-04T06:50:02.003Z,100166.81
2022-09-04T06:53:07.431Z,100172.34
2022-09-04T06:56:02.574Z,100182.50
2022-09-04T06:58:56.055Z,100182.22
2022-09-04T07:01:48.365Z,100186.22
2022-09-04T07:04:41.715Z,100189.44
2022-09-04T07:07:19.078Z,100185.31
2022-09-04T07:09:50.600Z,100189.16
2022-09-04T07:12:53.510Z,100185.31
2022-09-04T07:15:43.972Z,100186.41
2022-09-04T07:18:34.524Z,100188.41
2022-09-04T07:21:18.959Z,100188.84
2022-09-04T07:23:55.796Z,100188.63
2022-09-04T07:26:30.136Z,100191.03
2022-09-04T07:28:57.995Z,100191.25
2022-09-04T07:31:34.795Z,100188.38
2022-09-04T07:34:39.886Z,100193.19
2022-09-04T07:37:34.218Z,100196.97
2022-09-04T07:40:18.174Z,100207.84
2022-09-04T07:42:52.484Z,100210.88
2022-09-04T07:45:31.623Z,100209.41
2022-09-04T07:48:20.114Z,100214.03
2022-09-04T07:51:11.539Z,100209.59
2022-09-04T07:53:48.674Z,100207.53
2022-09-04T07:56:46.265Z,100211.97
2022-09-04T07:59:29.153Z,100208.62
2022-09-04T08:02:26.565Z,100211.28
2022-09-04T08:05:14.832Z,100222.12
2022-09-04T08:07:54.783Z,100219.87
2022-09-04T08:10:22.843Z,100227.50
2022-09-04T08:12:57.186Z,100239.78
2022-09-04T08:15:52.677Z,100244.13
2022-09-04T08:18:53.924Z,100247.16
2022-09-04T08:21:36.975Z,100248.47
2022-09-04T08:24:44.364Z,100250.75
2022-09-04T08:27:15.414Z,100243.09
2022-09-04T08:30:08.452Z,100243.47
2022-09-04T08:33:11.144Z,100255.66
2022-09-04T08:35:56.841Z,100251.94
2022-09-04T08:38:55.667Z,100254.03
2022-09-04T08:41:29.638Z,100249.91
2022-09-04T08:44:38.968Z,100251.50
2022-09-04T08:47:06.614Z,100249.28
2022-09-04T08:49:54.325Z,100256.56
2022-09-04T08:52:40.363Z,100256.41
2022-09-04T08:55:47.052Z,100255.25
2022-09-04T08:58:47.859Z,100250.84
2022-09-04T09:01:35.913Z,100257.50
2022-09-04T09:04:44.094Z,100255.91
2022-09-04T09:07:33.943Z,100262.56
2022-09-04T09:10:20.669Z,100258.53
2022-09-04T09:13:10.597Z,100259.38
2022-09-04T09:16:02.768Z,100265.47
2022-09-04T09:18:41.789Z,100267.56
2022-09-04T09:21:13.305Z,100265.88
2022-09-04T09:23:47.215Z,100256.31
2022-09-04T09:26:26.899Z,100262.03
2022-09-04T09:29:10.138Z,100262.56
2022-09-04T09:32:03.779Z,100272.00
2022-09-04T09:35:08.966Z,100276.81
2022-09-04T09:38:00.008Z,100279.16
2022-09-04T09:40:43.364Z,100274.56
2022-09-04T09:43:24.508Z,100272.72
2022-09-04T09:46:29.719Z,100271.91
2022-09-04T09:49:03.699Z,100268.78
2022-09-04T09:52:30.710Z,100269.22
2022-09-04T09:55:16.995Z,100272.34
2022-09-04T09:58:07.687Z,100271.94
2022-09-04T10:01:08.338Z,100273.38
2022-09-04T10:03:55.433Z,100272.34
2022-09-04T10:06:53.015Z,100275.06
2022-09-04T10:09:59.333Z,100278.59
2022-09-04T10:12:50.332Z,100285.91
2022-09-04T10:15:48.507Z,100278.19
2022-09-04T10:19:07.418Z,100275.03
2022-09-04T10:22:00.262Z,100275.44
2022-09-04T10:24:44.404Z,100274.00
2022-09-04T10:27:34.866Z,100280.66
2022-09-04T10:30:10.700Z,100277.28
2022-09-04T10:32:51.353Z,100274.81
2022-09-04T10:35:25.481Z,100268.75
2022-09-04T10:38:34.764Z,100275.19
2022-09-04T10:41:30.272Z,100279.94
2022-09-04T10:44:20.126Z,100283.00
2022-09-04T10:47:07.659Z,100285.19
2022-09-04T10:50:17.515Z,100284.87
2022-09-04T10:53:31.389Z,100282.84
2022-09-04T10:56:21.101Z,100286.88
2022-09-04T10:58:58.282Z,100285.59
2022-09-04T11:01:38.186Z,100288.72
2022-09-04T11:04:49.711Z,100292.31
2022-09-04T11:07:46.899Z,100288.81
2022-09-04T11:10:36.952Z,100292.16
2022-09-04T11:13:55.246Z,100294.09
2022-09-04T11:16:37.267Z,100296.66
2022-09-04T11:19:34.007Z,100299.00
2022-09-04T11:22:28.493Z,100293.84
2022-09-04T11:25:43.030Z,100288.63
2022-09-04T11:28:20.483Z,100293.25
2022-09-04T11:30:54.215Z,100295.38
2022-09-04T11:34:01.694Z,100294.75
2022-09-04T11:36:43.724Z,100297.09
2022-09-04T11:39:37.678Z,100295.00
2022-09-04T11:42:26.829Z,100295.41
2022-09-04T11:45:21.359Z,100287.06
2022-09-04T11:47:58.402Z,100289.56
2022-09-04T11:51:03.775Z,100287.06
2022-09-04T11:53:43.644Z,100285.81
2022-09-04T11:56:33.246Z,100277.28
2022-09-04T11:59:10.682Z,100267.06
2022-09-04T12:01:47.699Z,100258.09
2022-09-04T12:04:57.032Z,100261.41
2022-09-04T12:08:04.757Z,100255.38
2022-09-04T12:10:56.824Z,100252.44
2022-09-04T12:13:44.363Z,100253.06
2022-09-04T12:16:44.596Z,100256.19
2022-09-04T12:19:49.137Z,100246.78
2022-09-04T12:22:36.949Z,100251.00
2022-09-04T12:25:32.419Z,100252.81
2022-09-04T12:28:29.337Z,100257.03
2022-09-04T12:31:10.900Z,100255.94
2022-09-04T12:34:19.659Z,100253.16
2022-09-04T12:37:20.234Z,100257.34
2022-09-04T12:40:07.324Z,100253.34
2022-09-04T12:42:43.422Z,100251.81
2022-09-04T12:45:46.065Z,100249.28
2022-09-04T12:48:33.688Z,100245.91
2022-09-04T12:51:14.301Z,100241.06
2022-09-04T12:54:04.823Z,100240.59
2022-09-04T12:56:49.011Z,100245.00
2022-09-04T12:59:33.800Z,100244.09
2022-09-04T13:02:24.473Z,100236.19
2022-09-04T13:05:30.699Z,100231.06
2022-09-04T13:07:59.220Z,100236.06
2022-09-04T13:10:45.002Z,100243.44
2022-09-04T13:13:23.485Z,100230.03
2022-09-04T13:16:09.892Z,100223.72
2022-09-04T13:18:41.306Z,100225.75
2022-09-04T13:21:25.533Z,100218.41
2022-09-04T13:24:11.824Z,100222.03
2022-09-04T13:27:00.789Z,100217.69
2022-09-04T13:29:41.883Z,100213.03
2022-09-04T13:32:18.889Z,100215.75
2022-09-04T13:35:41.342Z,100217.19
2022-09-04T13:38:38.605Z,100219.53
2022-09-04T13:41:18.811Z,100219.66
2022-09-04T13:44:00.942Z,100215.56
2022-09-04T13:46:35.436Z,100218.09
2022-09-04T13:49:28.046Z,100214.75
2022-09-04T13:52:34.527Z,100216.87
2022-09-04T13:55:21.694Z,100214.06
2022-09-04T13:58:14.161Z,100218.59
2022-09-04T14:01:00.934Z,100211.38
2022-09-04T14:03:47.705Z,100207.25
2022-09-04T14:06:20.972Z,100214.03
2022-09-04T14:08:57.949Z,100205.63
2022-09-04T14:11:54.579Z,100206.34
2022-09-04T14:14:43.807Z,100201.59
2022-09-04T14:17:14.380Z,100202.06
2022-09-04T14:20:00.062Z,100197.88
2022-09-04T14:22:40.023Z,100201.81
2022-09-04T14:25:17.591Z,100195.16
2022-09-04T14:27:55.591Z,100199.31
2022-09-04T14:30:25.192Z,100210.31
2022-09-04T14:33:35.664Z,100200.38
2022-09-04T14:36:16.762Z,100200.69
2022-09-04T14:39:04.517Z,100205.50
2022-09-04T14:41:45.232Z,100201.16
2022-09-04T14:44:22.724Z,100208.03
2022-09-04T14:47:02.712Z,100212.41
2022-09-04T14:49:34.700Z,100220.84
2022-09-04T14:52:21.910Z,100213.94
2022-09-04T14:55:01.328Z,100215.81
2022-09-04T14:57:44.753Z,100216.16
2022-09-04T15:00:36.970Z,100214.84
2022-09-04T15:03:23.160Z,100225.66
2022-09-04T15:05:58.335Z,100221.69
2022-09-04T15:08:40.200Z,100220.53
2022-09-04T15:11:13.700Z,100217.97
2022-09-04T15:14:00.310Z,100224.84
2022-09-04T15:16:47.030Z,100229.38
2022-09-04T15:19:36.101Z,100230.75
2022-09-04T15:22:11.714Z,100227.06
2022-09-04T15:25:04.296Z,100227.78
2022-09-04T15:27:50.190Z,100225.88
2022-09-04T15:30:29.634Z,100221.31
2022-09-04T15:33:18.944Z,100225.09
2022-09-04T15:36:04.531Z,100236.97
2022-09-04T15:38:35.485Z,100235.53
2022-09-04T15:41:22.304Z,100238.00
2022-09-04T15:43:53.728Z,100232.75
2022-09-04T15:46:40.977Z,100244.63
2022-09-04T15:49:42.418Z,100239.66
2022-09-04T15:52:25.413Z,100235.78
2022-09-04T15:55:25.695Z,100239.56
2022-09-04T15:58:53.470Z,100233.91
2022-09-04T16:02:01.213Z,100238.00
2022-09-04T16:04:57.738Z,100231.84
2022-09-04T16:07:34.325Z,100238.06
2022-09-04T16:10:19.111Z,100237.06
2022-09-04T16:13:25.445Z,100231.25
2022-09-04T16:16:10.126Z,100235.69
2022-09-04T16:18:50.047Z,100233.75
2022-09-04T16:21:29.141Z,100226.22
2022-09-04T16:24:18.690Z,100216.47
2022-09-04T16:26:53.435Z,100227.28
2022-09-04T16:29:26.547Z,100232.47
2022-09-04T16:31:57.432Z,100231.09
2022-09-04T16:34:55.059Z,100228.38
2022-09-04T16:37:31.795Z,100226.53
2022-09-04T16:40:32.172Z,100233.75
2022-09-04T16:43:03.136Z,100234.03
2022-09-04T16:46:06.546Z,100235.59
2022-09-04T16:48:54.672Z,100226.16
2022-09-04T16:52:16.334Z,100227.44
2022-09-04T16:55:03.626Z,100234.22
2022-09-04T16:58:07.462Z,100238.06
2022-09-04T17:01:14.162Z,100237.63
2022-09-04T17:04:14.955Z,100242.09
2022-09-04T17:07:04.394Z,100247.72
2022-09-04T17:09:38.748Z,100239.06
2022-09-04T17:12:22.079Z,100236.19
2022-09-04T17:14:59.444Z,100239.06
2022-09-04T17:17:32.338Z,100245.31
2022-09-04T17:20:22.081Z,100243.66
2022-09-04T17:28:55.422Z,100250.34
2022-09-04T17:29:18.362Z,100260.56
2022-09-04T17:29:43.114Z,100260.78
2022-09-04T17:34:07.058Z,100261.37
2022-09-04T17:40:52.230Z,100268.59
2022-09-04T17:40:57.404Z,100266.53
2022-09-04T17:42:08.455Z,100275.25
2022-09-04T17:44:46.977Z,100276.72
2022-09-04T17:47:34.771Z,100292.09
2022-09-04T17:50:03.175Z,100292.19
2022-09-04T17:52:53.020Z,100295.50
2022-09-04T17:55:23.425Z,100301.13
2022-09-04T17:58:06.521Z,100299.72
2022-09-04T18:00:51.468Z,100305.03
2022-09-04T18:03:27.377Z,100304.19
2022-09-04T18:06:08.122Z,100313.34
2022-09-04T18:09:11.115Z,100316.03
2022-09-04T18:12:00.211Z,100322.19
2022-09-04T18:14:38.348Z,100322.34
2022-09-04T18:17:23.887Z,100340.06
2022-09-04T18:19:58.891Z,100341.69
2022-09-04T18:22:46.311Z,100340.97
2022-09-04T18:25:44.805Z,100345.66
2022-09-04T18:28:22.712Z,100344.88
2022-09-04T18:37:07.125Z,100350.47
2022-09-04T18:37:25.322Z,100349.91
2022-09-04T18:37:46.598Z,100353.75
2022-09-04T18:41:02.147Z,100348.84
2022-09-04T18:50:29.725Z,100359.69
2022-09-04T18:50:31.177Z,100372.94
2022-09-04T18:50:32.727Z,100363.22
2022-09-04T18:52:19.059Z,100363.06
2022-09-04T18:54:57.367Z,100367.66
2022-09-04T18:57:35.072Z,100362.66
2022-09-04T19:00:12.959Z,100372.91
2022-09-04T19:02:53.970Z,100368.12
2022-09-04T19:05:27.160Z,100375.28
2022-09-04T19:08:05.767Z,100382.41
2022-09-04T19:10:51.380Z,100376.63
2022-09-04T19:13:49.485Z,100372.31
2022-09-04T19:16:38.940Z,100390.63
2022-09-04T19:19:17.571Z,100393.69
2022-09-04T19:21:57.894Z,100397.63
2022-09-04T19:24:52.023Z,100397.28
2022-09-04T19:27:32.244Z,100400.00
2022-09-04T19:30:25.092Z,100402.91
2022-09-04T19:33:03.390Z,100395.19
2022-09-04T19:35:32.666Z,100397.28
2022-09-04T19:42:54.344Z,100398.28
2022-09-04T19:45:57.875Z,100398.31
2022-09-04T19:46:15.955Z,100396.78
2022-09-04T19:47:51.800Z,100402.56
2022-09-04T19:53:18.952Z,100400.75
2022-09-04T19:53:36.358Z,100397.56
2022-09-04T19:56:15.627Z,100402.28
2022-09-04T19:58:53.003Z,100402.44
2022-09-04T20:01:26.659Z,100399.16
2022-09-04T20:04:10.674Z,100403.25
2022-09-04T20:06:47.751Z,100392.44
2022-09-04T20:09:26.412Z,100398.44
2022-09-04T20:12:40.443Z,100396.94
2022-09-04T20:15:18.683Z,100402.63
2022-09-04T20:18:10.662Z,100392.00
2022-09-04T20:20:47.969Z,100398.19
2022-09-04T20:23:37.636Z,100398.88
2022-09-04T20:26:09.668Z,100393.94
2022-09-04T20:29:16.543Z,100396.19
2022-09-04T20:31:51.842Z,100400.13
2022-09-04T20:34:29.974Z,100398.94
2022-09-04T20:37:20.518Z,100390.47
2022-09-04T20:40:15.203Z,100393.81
2022-09-04T20:42:56.523Z,100399.34
2022-09-04T20:47:11.362Z,100400.19
2022-09-04T20:52:51.809Z,100399.78
2022-09-04T20:52:52.230Z,100383.81
2022-09-04T20:54:50.988Z,100395.88
2022-09-04T21:02:23.137Z,100398.81
2022-09-04T21:03:23.715Z,100393.22
2022-09-04T21:03:57.391Z,100398.00
2022-09-04T21:06:34.881Z,100394.91
2022-09-04T21:09:11.038Z,100393.16
2022-09-04T21:11:51.953Z,100388.78
2022-09-04T21:14:44.909Z,100395.09
2022-09-04T21:17:37.176Z,100384.72
2022-09-04T21:20:16.788Z,100391.19
2022-09-04T21:23:09.820Z,100397.25
2022-09-04T21:26:22.008Z,100398.59
2022-09-04T21:29:09.114Z,100403.16
2022-09-04T21:32:00.073Z,100402.97
2022-09-04T21:34:53.972Z,100405.25
2022-09-04T21:38:17.689Z,100414.06
2022-09-04T21:41:03.489Z,100412.53
2022-09-04T21:44:11.183Z,100417.00
2022-09-04T21:47:08.734Z,100418.09
2022-09-04T21:49:42.439Z,100420.19
2022-09-04T21:52:24.646Z,100415.88
2022-09-04T21:56:38.101Z,100414.78
2022-09-04T22:02:31.024Z,100419.94
2022-09-04T22:02:36.660Z,100419.66
2022-09-04T22:04:17.197Z,100420.09
2022-09-04T22:10:26.219Z,100428.91
2022-09-04T22:13:46.421Z,100418.66
2022-09-04T22:13:46.653Z,100424.13
2022-09-04T22:16:01.827Z,100430.97
2022-09-04T22:19:16.288Z,100422.34
2022-09-04T22:22:10.364Z,100423.66
2022-09-04T22:25:06.371Z,100424.09
2022-09-04T22:28:07.479Z,100425.25
2022-09-04T22:31:11.319Z,100430.41
2022-09-04T22:34:17.572Z,100431.28
2022-09-04T22:37:23.110Z,100432.88
2022-09-04T22:40:12.675Z,100433.97
2022-09-04T22:43:02.530Z,100429.75
2022-09-04T22:45:39.427Z,100433.69
2022-09-04T22:48:49.159Z,100429.25
2022-09-04T22:51:43.601Z,100430.09
2022-09-04T22:54:23.265Z,100429.56
2022-09-04T22:57:06.289Z,100429.81
2022-09-04T22:59:55.572Z,100435.84
2022-09-04T23:02:54.146Z,100433.50
2022-09-04T23:05:39.977Z,100435.62
2022-09-04T23:13:41.862Z,100436.44
2022-09-04T23:13:49.607Z,100435.50
2022-09-04T23:14:22.574Z,100437.13
2022-09-04T23:17:05.198Z,100435.94
2022-09-04T23:23:36.405Z,100430.53
2022-09-04T23:26:50.176Z,100433.19
2022-09-04T23:26:51.090Z,100432.50
2022-09-04T23:29:41.096Z,100440.87
2022-09-04T23:32:40.437Z,100431.84
2022-09-04T23:35:40.588Z,100438.22
2022-09-04T23:38:26.580Z,100435.00
2022-09-04T23:41:25.420Z,100432.72
2022-09-04T23:44:32.050Z,100431.75
2022-09-04T23:47:46.864Z,100429.56
2022-09-04T23:50:35.045Z,100430.78
2022-09-04T23:53:08.512Z,100418.28
2022-09-04T23:55:49.114Z,100428.13
2022-09-04T23:59:03.181Z,100420.44
